Izmir Cigli Air Force Base, Turkey

6:31 PM EEST on July 31, 2014 (GMT +0300)
Adnan Menderes (LTBJ) Elev 394 ft | 38.29 °N, 27.15 °E | Change Station

Current weather conditions updated 11 minutes ago

Clear
Clear
97 °F
Feels Like 97 °F
N
12
Wind Variable Wind from WSW

Tomorrow is forecast to be Cooler than today.

Today
High -- | Low -- °F
--% Chance of Precip.
Yesterday
High -- | Low -- °F
Precip. -- in
6:12 AM 8:23 PM
Waxing Crescent, 19% visible
Pressure 29.65 in
Visibility -9999.0 miles
Clouds
Dew Point 52 °F
Humidity 22%
Rainfall 0.00 in
Snow Depth Not available.
UV Not available.
Pollen Not available.
Air Quality Not available.
Flu Activity Not available.
METAR LTBJ 311520Z 24010KT CAVOK 36/11 Q1004 NOSIG

More Conditions Fewer Conditions

Pressure 29.65 in
Visibility -9999.0 miles
Clouds
Dew Point 52 °F
Humidity 22%
Rainfall 0.00 in
Snow Depth Not available.
UV Not available.
Pollen Not available.
Air Quality Not available.
Flu Activity Not available.
METAR LTBJ 311520Z 24010KT CAVOK 36/11 Q1004 NOSIG

More Conditions Fewer Conditions

10-Day Weather Forecast

Almanac

Astronomy

Jul. 31, 2014 Rise Set
Actual Time 6:12 AM EEST 8:23 PM EEST
Civil Twilight 5:43 AM EEST 8:52 PM EEST
Nautical Twilight 5:06 AM EEST 9:29 PM EEST
Astronomical Twilight 4:27 AM EEST 10:08 PM EEST
Moon 10:18 AM EEST 10:30 PM EEST
Length of Visible Light 15h 09m
Length of Day
14h 10m
Tomorrow will be 1m 51s shorter.
Waxing Crescent, 19% of the Moon is Illuminated
Today
Waxing Crescent
Aug 3
First Quarter
Aug 10
Full
Aug 17
Last Quarter
Aug 25
New

Today's Extremes

Country Highs Country Lows

Community

WunderPhotos

Upload Photos

1,739,357 photos uploaded!

Nearby

Snow Depth

Not available.

Earthquake Activity

City Distance Mag. Time & Date
No recent earthquake activity has been reported nearby.
Minimum magnitude displayed is 2.5.

Coastal Water Temperatures

Place Temperature
No Stations Reporting

Nearby Weather Stations

There are no personal weather stations in this area.